Time;durP1;ratioP1;P1;durP2;ratioP2;P2;SDS_P1;SDS_P2;PMS_P1;PMS_P2;Temp;Humidity;BMP_temperature;BMP_pressure;BME280_temperature;BME280_humidity;BME280_pressure;Samples;Min_cycle;Max_cycle;Signal;HPM_P1;HPM_P2
2023/08/27 00:02:16;;;;;;;0.10;0.10;;;;;;;14.14;100.00;100876.47;5115623;28;20424;-51
2023/08/27 00:04:42;;;;;;;0.10;0.10;;;;;;;14.09;100.00;100871.19;5116029;28;20490;-49
2023/08/27 00:07:08;;;;;;;0.10;0.10;;;;;;;14.04;100.00;100870.25;5115322;28;20030;-47
2023/08/27 00:09:33;;;;;;;0.00;0.00;;;;;;;14.00;100.00;100853.78;5115609;27;20015;-49
2023/08/27 00:11:58;;;;;;;0.10;0.10;;;;;;;13.91;100.00;100865.72;5115310;28;20046;-51
2023/08/27 00:14:23;;;;;;;0.00;0.00;;;;;;;13.83;100.00;100852.66;5115545;28;20016;-50
2023/08/27 00:16:50;;;;;;;0.10;0.10;;;;;;;13.74;100.00;100834.38;5115965;28;20051;-51
2023/08/27 00:19:15;;;;;;;0.10;0.10;;;;;;;13.64;100.00;100828.16;5114671;28;20836;-50
2023/08/27 00:21:41;;;;;;;0.10;0.10;;;;;;;13.56;100.00;100825.44;5115945;28;20161;-51
2023/08/27 00:24:07;;;;;;;0.10;0.10;;;;;;;13.47;100.00;100820.97;5115825;28;20031;-48
2023/08/27 00:26:32;;;;;;;0.10;0.10;;;;;;;13.39;100.00;100817.41;5114790;28;20494;-51
2023/08/27 00:28:58;;;;;;;0.10;0.10;;;;;;;13.33;100.00;100806.88;5115532;28;20031;-50
2023/08/27 00:31:24;;;;;;;0.10;0.10;;;;;;;13.27;100.00;100802.50;5115247;28;20046;-50
2023/08/27 00:33:49;;;;;;;0.10;0.10;;;;;;;13.20;100.00;100795.44;5114636;28;20467;-51
2023/08/27 00:36:15;;;;;;;0.10;0.10;;;;;;;13.19;100.00;100785.94;5115188;28;20034;-50
2023/08/27 00:38:40;;;;;;;0.10;0.10;;;;;;;13.13;100.00;100784.13;5115456;28;20035;-51
2023/08/27 00:41:05;;;;;;;0.10;0.10;;;;;;;13.10;100.00;100781.47;5114678;28;20043;-50
2023/08/27 00:43:31;;;;;;;0.10;0.10;;;;;;;13.07;100.00;100785.72;5115025;28;20478;-50
2023/08/27 00:45:56;;;;;;;0.03;0.03;;;;;;;13.04;100.00;100789.13;5115252;28;20016;-49
2023/08/27 00:48:21;;;;;;;0.10;0.10;;;;;;;13.00;100.00;100787.31;5114452;28;20015;-50
2023/08/27 00:50:48;;;;;;;0.10;0.10;;;;;;;12.97;100.00;100770.00;5115370;28;20106;-51
2023/08/27 00:53:15;;;;;;;0.17;0.17;;;;;;;12.95;100.00;100773.41;5114691;28;20024;-50
2023/08/27 00:55:40;;;;;;;0.10;0.10;;;;;;;12.81;100.00;100771.44;5114382;28;20024;-51
2023/08/27 00:58:06;;;;;;;0.10;0.10;;;;;;;12.70;100.00;100767.78;5114883;27;20047;-50
2023/08/27 01:00:31;;;;;;;0.10;0.10;;;;;;;12.71;100.00;100769.53;5114619;28;20375;-51
2023/08/27 01:02:57;;;;;;;0.10;0.10;;;;;;;12.69;100.00;100781.53;5114403;28;20024;-51
2023/08/27 01:05:24;;;;;;;0.10;0.10;;;;;;;12.66;100.00;100772.00;5114725;28;20019;-50
2023/08/27 01:08:05;;;;;;;0.10;0.10;;;;;;;12.59;100.00;100774.44;5114882;28;20483;-49
2023/08/27 01:10:44;;;;;;;0.10;0.10;;;;;;;12.54;100.00;100770.91;5113748;28;20123;-48
2023/08/27 01:13:14;;;;;;;0.10;0.10;;;;;;;12.50;100.00;100775.16;5114680;28;20425;-50
2023/08/27 01:15:40;;;;;;;0.10;0.10;;;;;;;12.43;100.00;100763.78;5113509;28;20035;-50
2023/08/27 01:18:08;;;;;;;0.10;0.10;;;;;;;12.37;100.00;100760.22;5114517;28;20479;-50
2023/08/27 01:20:34;;;;;;;0.10;0.10;;;;;;;12.30;100.00;100761.81;5114330;27;20020;-50
2023/08/27 01:22:59;;;;;;;0.10;0.10;;;;;;;12.17;100.00;100765.84;5113860;28;20038;-50
2023/08/27 01:25:32;;;;;;;0.20;0.20;;;;;;;12.12;100.00;100759.69;5114452;28;20035;-50
2023/08/27 01:28:14;;;;;;;0.10;0.10;;;;;;;12.12;100.00;100762.28;5114393;28;20027;-48
2023/08/27 01:30:47;;;;;;;0.10;0.10;;;;;;;11.99;100.00;100761.13;5113977;28;20032;-51
2023/08/27 01:33:17;;;;;;;0.10;0.10;;;;;;;11.98;100.00;100764.56;5114117;27;20382;-49
2023/08/27 01:35:44;;;;;;;0.10;0.10;;;;;;;11.94;100.00;100762.72;5114282;28;20020;-50
2023/08/27 01:38:11;;;;;;;0.10;0.10;;;;;;;11.84;100.00;100759.94;5113534;28;20031;-47
2023/08/27 01:40:37;;;;;;;0.10;0.10;;;;;;;11.87;100.00;100753.97;5114128;28;20034;-48
2023/08/27 01:43:02;;;;;;;0.10;0.10;;;;;;;11.92;100.00;100754.94;5114309;28;20098;-48
2023/08/27 01:45:28;;;;;;;0.10;0.10;;;;;;;11.98;100.00;100760.28;5113160;28;20146;-50
2023/08/27 01:47:53;;;;;;;0.10;0.10;;;;;;;12.01;100.00;100759.47;5113979;28;20034;-48
2023/08/27 01:50:18;;;;;;;0.10;0.10;;;;;;;11.99;100.00;100751.69;5113452;28;20036;-50
2023/08/27 01:52:43;;;;;;;0.10;0.10;;;;;;;11.91;100.00;100748.00;5113523;28;20024;-49
2023/08/27 01:55:09;;;;;;;0.10;0.10;;;;;;;12.03;100.00;100742.28;5113911;28;20058;-51
2023/08/27 01:57:34;;;;;;;0.10;0.10;;;;;;;12.10;100.00;100740.72;5113058;28;20034;-49
2023/08/27 02:00:00;;;;;;;0.10;0.10;;;;;;;12.16;100.00;100740.84;5113900;28;20382;-49
2023/08/27 02:02:25;;;;;;;0.10;0.10;;;;;;;12.16;100.00;100738.25;5113657;28;20016;-50
2023/08/27 02:04:51;;;;;;;0.10;0.10;;;;;;;12.20;100.00;100745.25;5113027;28;20052;-49
2023/08/27 02:07:19;;;;;;;0.10;0.10;;;;;;;12.25;100.00;100745.34;5113780;28;20042;-48
2023/08/27 02:09:45;;;;;;;0.10;0.10;;;;;;;12.32;100.00;100731.72;5113779;28;20023;-51
2023/08/27 02:12:10;;;;;;;0.10;0.10;;;;;;;12.32;100.00;100732.56;5113410;28;20024;-50
2023/08/27 02:14:36;;;;;;;0.10;0.10;;;;;;;12.34;100.00;100733.47;5113526;28;20028;-50
2023/08/27 02:17:02;;;;;;;0.10;0.10;;;;;;;12.42;100.00;100738.81;5113555;28;20443;-51
2023/08/27 02:19:27;;;;;;;0.10;0.10;;;;;;;12.44;100.00;100742.28;5112493;28;20502;-51
2023/08/27 02:21:52;;;;;;;0.00;0.00;;;;;;;12.46;100.00;100738.03;5113470;28;20459;-50
2023/08/27 02:24:18;;;;;;;0.10;0.10;;;;;;;12.49;100.00;100732.91;5113171;28;20054;-51
2023/08/27 02:26:43;;;;;;;0.10;0.10;;;;;;;12.52;100.00;100738.16;5111991;28;20019;-51
2023/08/27 02:29:08;;;;;;;0.10;0.10;;;;;;;12.56;100.00;100739.06;5113547;28;20076;-50
2023/08/27 02:31:34;;;;;;;0.10;0.10;;;;;;;12.57;100.00;100745.13;5113311;28;20027;-49
2023/08/27 02:33:59;;;;;;;0.10;0.10;;;;;;;12.60;100.00;100751.22;5112566;28;20020;-50
2023/08/27 02:36:25;;;;;;;0.10;0.10;;;;;;;12.63;100.00;100746.09;5113007;28;20157;-50
2023/08/27 02:38:50;;;;;;;0.10;0.10;;;;;;;12.65;100.00;100744.44;5113750;28;20026;-51
2023/08/27 02:41:15;;;;;;;0.10;0.10;;;;;;;12.69;100.00;100747.94;5112367;28;20008;-48
2023/08/27 02:43:41;;;;;;;0.10;0.10;;;;;;;12.74;100.00;100751.47;5113374;28;20019;-52
2023/08/27 02:46:07;;;;;;;0.10;0.10;;;;;;;12.74;100.00;100754.06;5113447;28;20073;-50
2023/08/27 02:48:32;;;;;;;0.10;0.10;;;;;;;12.75;100.00;100740.28;5112198;28;20024;-51
2023/08/27 02:50:57;;;;;;;0.10;0.10;;;;;;;12.76;100.00;100747.22;5113178;28;20097;-51
2023/08/27 02:53:23;;;;;;;0.10;0.10;;;;;;;12.77;100.00;100750.66;5112650;28;20027;-47
2023/08/27 02:55:48;;;;;;;0.10;0.10;;;;;;;12.77;100.00;100761.91;5112635;28;20055;-50
2023/08/27 02:58:14;;;;;;;0.20;0.20;;;;;;;12.75;100.00;100760.97;5112838;28;20193;-51
2023/08/27 03:00:40;;;;;;;0.10;0.10;;;;;;;12.74;100.00;100755.78;5112799;28;20106;-49
2023/08/27 03:03:05;;;;;;;0.10;0.10;;;;;;;12.75;100.00;100750.63;5112839;28;20032;-51
2023/08/27 03:05:31;;;;;;;0.10;0.10;;;;;;;12.76;100.00;100747.22;5112805;28;20203;-50
2023/08/27 03:07:56;;;;;;;0.10;0.10;;;;;;;12.77;100.00;100748.97;5112457;28;20024;-50
2023/08/27 03:10:22;;;;;;;0.20;0.20;;;;;;;12.79;100.00;100747.25;5112875;28;20052;-51
2023/08/27 03:12:47;;;;;;;0.10;0.10;;;;;;;12.79;100.00;100757.59;5113118;28;20076;-51
2023/08/27 03:15:13;;;;;;;0.10;0.10;;;;;;;12.78;100.00;100770.50;5111950;28;20390;-50
2023/08/27 03:17:38;;;;;;;0.10;0.10;;;;;;;12.77;100.00;100763.59;5112991;28;20112;-48
2023/08/27 03:20:04;;;;;;;0.15;0.15;;;;;;;12.78;100.00;100749.81;5112890;28;20471;-47
2023/08/27 03:22:30;;;;;;;0.10;0.10;;;;;;;12.75;100.00;100760.97;5112064;28;20066;-51
2023/08/27 03:24:55;;;;;;;0.13;0.13;;;;;;;12.79;100.00;100757.59;5113049;28;20054;-50
2023/08/27 03:27:21;;;;;;;0.10;0.10;;;;;;;12.78;100.00;100761.06;5112832;28;20457;-51
2023/08/27 03:29:46;;;;;;;0.10;0.10;;;;;;;12.77;100.00;100764.47;5111979;28;20024;-51
2023/08/27 03:32:13;;;;;;;0.10;0.10;;;;;;;12.77;100.00;100769.66;5112899;28;20020;-46
2023/08/27 03:34:39;;;;;;;0.13;0.13;;;;;;;12.73;100.00;100765.28;5112688;28;20103;-50
2023/08/27 03:37:04;;;;;;;0.10;0.10;;;;;;;12.76;100.00;100774.81;5112122;28;20103;-50
2023/08/27 03:39:29;;;;;;;0.10;0.10;;;;;;;12.77;100.00;100768.75;5115755;28;20028;-51
2023/08/27 03:41:55;;;;;;;0.10;0.10;;;;;;;12.72;100.00;100763.53;5116442;28;20039;-50
2023/08/27 03:44:20;;;;;;;0.10;0.10;;;;;;;12.73;100.00;100759.22;5115471;28;20028;-50
2023/08/27 03:46:45;;;;;;;0.10;0.10;;;;;;;12.68;100.00;100754.81;5116543;28;20026;-51
2023/08/27 03:49:10;;;;;;;0.10;0.10;;;;;;;12.67;100.00;100752.22;5116199;28;20551;-51
2023/08/27 03:51:36;;;;;;;0.10;0.10;;;;;;;12.65;100.00;100751.31;5115281;28;20023;-50
2023/08/27 03:54:02;;;;;;;0.10;0.10;;;;;;;12.63;100.00;100750.41;5116039;28;20475;-49
2023/08/27 03:56:28;;;;;;;0.10;0.10;;;;;;;12.61;100.00;100741.75;5116097;28;20038;-50
2023/08/27 03:58:53;;;;;;;0.10;0.10;;;;;;;12.61;100.00;100736.56;5115597;28;20023;-51
2023/08/27 04:01:18;;;;;;;0.20;0.20;;;;;;;12.57;100.00;100724.44;5116104;28;20148;-47
2023/08/27 04:03:44;;;;;;;0.10;0.10;;;;;;;12.57;100.00;100734.78;5116148;28;20080;-49
2023/08/27 04:06:10;;;;;;;0.10;0.10;;;;;;;12.56;100.00;100728.72;5115624;28;20064;-51
2023/08/27 04:08:36;;;;;;;0.10;0.10;;;;;;;12.60;100.00;100724.50;5115871;28;20115;-49
2023/08/27 04:11:01;;;;;;;0.10;0.10;;;;;;;12.63;100.00;100725.41;5115280;28;20116;-49
2023/08/27 04:13:27;;;;;;;0.10;0.10;;;;;;;12.64;100.00;100728.88;5115584;28;20027;-46
2023/08/27 04:16:02;;;;;;;0.10;0.10;;;;;;;12.66;100.00;100719.44;5115859;28;20019;-51
2023/08/27 04:18:27;;;;;;;0.10;0.10;;;;;;;12.67;100.00;100716.00;5114709;28;20023;-47
2023/08/27 04:20:53;;;;;;;0.10;0.10;;;;;;;12.67;100.00;100721.19;5115796;28;20046;-48
2023/08/27 04:23:18;;;;;;;0.10;0.10;;;;;;;12.63;100.00;100724.56;5115635;28;20024;-46
2023/08/27 04:25:44;;;;;;;0.10;0.10;;;;;;;12.62;100.00;100726.25;5114951;28;20016;-49
2023/08/27 04:28:10;;;;;;;0.15;0.15;;;;;;;12.61;100.00;100719.34;5115812;28;20084;-47
2023/08/27 04:30:35;;;;;;;0.10;0.10;;;;;;;12.62;100.00;100735.75;5115181;28;20035;-50
2023/08/27 04:33:01;;;;;;;0.10;0.10;;;;;;;12.57;100.00;100734.78;5114687;28;20015;-50
2023/08/27 04:35:26;;;;;;;0.10;0.10;;;;;;;12.55;100.00;100736.44;5115375;28;20019;-51
2023/08/27 04:37:51;;;;;;;0.10;0.10;;;;;;;12.54;100.00;100730.41;5115483;28;20086;-52
2023/08/27 04:40:16;;;;;;;0.10;0.10;;;;;;;12.54;100.00;100722.66;5114199;28;20118;-51
2023/08/27 04:42:42;;;;;;;0.10;0.10;;;;;;;12.51;100.00;100713.13;5115230;28;20455;-51
2023/08/27 04:45:09;;;;;;;0.10;0.10;;;;;;;12.56;100.00;100727.88;5115221;28;20028;-51
2023/08/27 04:47:34;;;;;;;0.10;0.10;;;;;;;12.51;100.00;100728.66;5114138;28;20348;-51
2023/08/27 04:49:59;;;;;;;0.20;0.20;;;;;;;12.50;100.00;100729.47;5114375;28;20031;-50
2023/08/27 04:52:25;;;;;;;0.10;0.10;;;;;;;12.51;100.00;100736.41;5114861;28;20527;-48
2023/08/27 04:54:50;;;;;;;0.10;0.10;;;;;;;12.51;100.00;100736.41;5114234;28;20043;-50
2023/08/27 04:57:16;;;;;;;0.10;0.10;;;;;;;12.52;100.00;100738.16;5114671;28;20023;-47
2023/08/27 04:59:41;;;;;;;0.10;0.10;;;;;;;12.51;100.00;100735.50;5114930;27;20023;-47
2023/08/27 05:02:07;;;;;;;0.10;0.10;;;;;;;12.51;100.00;100741.56;5114104;28;20027;-47
2023/08/27 05:04:32;;;;;;;0.10;0.10;;;;;;;12.49;100.00;100744.97;5114521;28;20027;-46
2023/08/27 05:06:57;;;;;;;0.10;0.10;;;;;;;12.45;100.00;100748.34;5115018;28;20065;-51
2023/08/27 05:09:23;;;;;;;0.10;0.10;;;;;;;12.45;100.00;100756.09;5113967;28;20024;-46
2023/08/27 05:11:48;;;;;;;0.10;0.10;;;;;;;12.44;100.00;100750.03;5114839;28;20414;-48
2023/08/27 05:14:14;;;;;;;0.20;0.20;;;;;;;12.47;100.00;100755.28;5114514;28;20020;-50
2023/08/27 05:16:39;;;;;;;0.10;0.10;;;;;;;12.48;100.00;100751.84;5113926;28;20382;-51
2023/08/27 05:19:04;;;;;;;0.10;0.10;;;;;;;12.48;100.00;100761.31;5114837;28;20024;-50
2023/08/27 05:21:30;;;;;;;0.10;0.10;;;;;;;12.46;100.00;100750.06;5113684;28;20024;-46
2023/08/27 05:23:55;;;;;;;0.15;0.15;;;;;;;12.45;100.00;100745.75;5114591;28;20038;-46
2023/08/27 05:26:20;;;;;;;0.10;0.10;;;;;;;12.44;100.00;100742.28;5114337;28;20016;-46
2023/08/27 05:28:46;;;;;;;0.10;0.10;;;;;;;12.46;100.00;100743.19;5113781;28;20023;-46
2023/08/27 05:31:11;;;;;;;0.10;0.10;;;;;;;12.47;100.00;100749.22;5114435;28;20024;-51
2023/08/27 05:33:36;;;;;;;0.10;0.10;;;;;;;12.48;100.00;100751.84;5114341;28;20466;-47
2023/08/27 05:36:02;;;;;;;0.20;0.20;;;;;;;12.49;100.00;100739.81;5113696;27;20106;-51
2023/08/27 05:38:27;;;;;;;0.10;0.10;;;;;;;12.50;100.00;100745.00;5113794;28;20367;-46
2023/08/27 05:40:52;;;;;;;0.10;0.10;;;;;;;12.57;100.00;100743.41;5114213;28;20072;-47
2023/08/27 05:43:18;;;;;;;0.13;0.13;;;;;;;12.54;100.00;100747.63;5113188;28;20483;-51
2023/08/27 05:45:43;;;;;;;0.10;0.10;;;;;;;12.56;100.00;100748.53;5114132;28;20518;-46
2023/08/27 05:48:09;;;;;;;0.10;0.10;;;;;;;12.58;100.00;100745.16;5114247;28;20026;-48
2023/08/27 05:50:36;;;;;;;0.10;0.10;;;;;;;12.56;100.00;100752.00;5112833;28;20024;-47
2023/08/27 05:53:03;;;;;;;0.17;0.17;;;;;;;12.58;100.00;100752.03;5114084;28;20019;-46
2023/08/27 05:55:29;;;;;;;0.20;0.20;;;;;;;12.57;100.00;100742.53;5113451;28;20482;-51
2023/08/27 05:57:54;;;;;;;0.10;0.10;;;;;;;12.60;100.00;100745.16;5112990;28;20106;-46
2023/08/27 06:00:19;;;;;;;0.10;0.10;;;;;;;12.68;100.00;100744.47;5113522;28;20031;-51
2023/08/27 06:02:45;;;;;;;0.10;0.10;;;;;;;12.71;100.00;100743.66;5113466;28;20059;-51
2023/08/27 06:05:11;;;;;;;0.10;0.10;;;;;;;12.73;100.00;100735.94;5113088;28;20062;-51
2023/08/27 06:07:37;;;;;;;0.10;0.10;;;;;;;12.79;100.00;100736.06;5113848;28;20059;-46
2023/08/27 06:10:02;;;;;;;0.10;0.10;;;;;;;12.84;100.00;100740.47;5113744;28;20070;-49
2023/08/27 06:12:28;;;;;;;0.10;0.10;;;;;;;12.91;100.00;100725.94;5112763;28;20066;-51
2023/08/27 06:14:53;;;;;;;0.20;0.20;;;;;;;12.99;100.00;100731.25;5113592;28;20061;-51
2023/08/27 06:17:18;;;;;;;0.10;0.10;;;;;;;13.12;100.00;100734.94;5113454;28;20049;-49
2023/08/27 06:19:44;;;;;;;0.10;0.10;;;;;;;13.20;100.00;100727.31;5113004;28;20089;-51
2023/08/27 06:22:09;;;;;;;0.10;0.10;;;;;;;13.16;100.00;100727.22;5113650;27;20146;-49
2023/08/27 06:24:34;;;;;;;0.13;0.13;;;;;;;13.28;100.00;100729.16;5113369;28;20478;-47
2023/08/27 06:26:59;;;;;;;0.10;0.10;;;;;;;13.24;100.00;100723.91;5112712;28;20386;-47
2023/08/27 06:29:25;;;;;;;0.10;0.10;;;;;;;13.24;100.00;100719.59;5113034;28;20038;-52
2023/08/27 06:31:50;;;;;;;0.15;0.15;;;;;;;13.27;100.00;100716.19;5112843;28;20023;-48
2023/08/27 06:34:16;;;;;;;0.10;0.10;;;;;;;13.26;100.00;100717.03;5113126;28;20084;-46
2023/08/27 06:36:42;;;;;;;0.10;0.10;;;;;;;13.25;100.00;100713.59;5113211;28;20023;-47
2023/08/27 06:39:08;;;;;;;0.10;0.10;;;;;;;13.26;100.00;100722.22;5112673;28;20049;-51
2023/08/27 06:41:33;;;;;;;0.10;0.10;;;;;;;13.30;100.00;100719.72;5112991;28;20024;-51
2023/08/27 06:43:58;;;;;;;0.10;0.10;;;;;;;13.35;100.00;100724.97;5113220;28;20027;-50
2023/08/27 06:46:23;;;;;;;0.20;0.20;;;;;;;13.43;100.00;100731.16;5112357;28;20467;-48
2023/08/27 06:48:49;;;;;;;0.10;0.10;;;;;;;13.44;100.00;100732.91;5113319;28;20417;-48
2023/08/27 06:51:14;;;;;;;0.10;0.10;;;;;;;13.49;100.00;100731.25;5113080;28;20103;-47
2023/08/27 06:53:40;;;;;;;0.10;0.10;;;;;;;13.56;100.00;100729.63;5112099;28;20429;-50
2023/08/27 06:56:05;;;;;;;0.20;0.20;;;;;;;13.60;100.00;100730.56;5113224;28;20028;-51
2023/08/27 06:58:30;;;;;;;0.10;0.10;;;;;;;13.66;100.00;100730.66;5112685;28;20024;-46
2023/08/27 07:00:56;;;;;;;0.10;0.10;;;;;;;13.70;100.00;100729.84;5112169;28;20032;-50
2023/08/27 07:03:22;;;;;;;0.20;0.20;;;;;;;13.81;100.00;100736.06;5113007;28;20020;-48
2023/08/27 07:05:48;;;;;;;0.10;0.10;;;;;;;13.85;100.00;100723.16;5113009;28;20088;-51
2023/08/27 07:08:14;;;;;;;0.10;0.10;;;;;;;13.98;100.00;100738.00;5112062;28;20031;-48
2023/08/27 07:10:39;;;;;;;0.10;0.10;;;;;;;14.01;100.00;100735.47;5113046;28;20530;-46
2023/08/27 07:13:04;;;;;;;0.10;0.10;;;;;;;14.09;100.00;100733.84;5113836;28;20035;-49
2023/08/27 07:15:30;;;;;;;0.10;0.10;;;;;;;14.16;100.00;100735.69;5115998;28;20043;-47
2023/08/27 07:17:55;;;;;;;0.10;0.10;;;;;;;14.28;100.00;100734.97;5117187;28;20084;-51
2023/08/27 07:20:22;;;;;;;0.10;0.10;;;;;;;14.28;100.00;100739.25;5116666;28;20023;-47
2023/08/27 07:22:48;;;;;;;0.10;0.10;;;;;;;14.43;100.00;100736.84;5116266;28;20115;-50
2023/08/27 07:25:13;;;;;;;0.10;0.10;;;;;;;14.47;100.00;100733.47;5116598;28;20055;-47
2023/08/27 07:27:38;;;;;;;0.10;0.10;;;;;;;14.58;100.00;100737.91;5116846;28;20114;-46
2023/08/27 07:30:04;;;;;;;0.10;0.10;;;;;;;14.62;100.00;100735.34;5116413;28;20107;-46
2023/08/27 07:32:30;;;;;;;0.10;0.10;;;;;;;14.76;100.00;100730.34;5116018;27;20032;-50
2023/08/27 07:34:55;;;;;;;0.10;0.10;;;;;;;14.77;100.00;100732.09;5116756;28;20031;-50
2023/08/27 07:37:21;;;;;;;0.10;0.10;;;;;;;14.88;100.00;100731.31;5115886;28;20081;-50
2023/08/27 07:39:46;;;;;;;0.10;0.10;;;;;;;14.88;100.00;100744.31;5116638;28;20020;-46
2023/08/27 07:42:11;;;;;;;0.10;0.10;;;;;;;14.99;100.00;100740.09;5115686;28;20051;-46
2023/08/27 07:44:37;;;;;;;0.10;0.10;;;;;;;15.02;100.00;100745.31;5116459;28;20493;-46
2023/08/27 07:47:03;;;;;;;0.10;0.10;;;;;;;15.05;100.00;100734.94;5116517;28;20080;-48
2023/08/27 07:49:28;;;;;;;0.10;0.10;;;;;;;15.13;100.00;100738.50;5115452;28;20024;-50
2023/08/27 07:51:54;;;;;;;0.10;0.10;;;;;;;15.36;100.00;100745.59;5116587;28;20027;-46
2023/08/27 07:54:19;;;;;;;0.10;0.10;;;;;;;15.41;100.00;100738.72;5115951;27;20063;-47
2023/08/27 07:56:44;;;;;;;0.10;0.10;;;;;;;15.33;100.00;100739.53;5115488;28;20076;-48
2023/08/27 07:59:09;;;;;;;0.10;0.10;;;;;;;15.25;100.00;100742.91;5116006;28;20024;-47
2023/08/27 08:01:35;;;;;;;0.10;0.10;;;;;;;15.29;100.00;100738.63;5116009;28;20068;-47
2023/08/27 08:04:01;;;;;;;0.10;0.10;;;;;;;15.48;100.00;100735.31;5115498;28;20110;-47
2023/08/27 08:06:26;;;;;;;0.10;0.10;;;;;;;15.58;100.00;100732.78;5116011;28;20039;-49
2023/08/27 08:08:51;;;;;;;0.10;0.10;;;;;;;15.76;100.00;100729.44;5115999;28;20110;-50
2023/08/27 08:11:17;;;;;;;0.10;0.10;;;;;;;15.79;100.00;100725.13;5114910;28;20482;-50
2023/08/27 08:13:44;;;;;;;0.10;0.10;;;;;;;15.91;100.00;100724.38;5115871;28;20031;-48
2023/08/27 08:16:10;;;;;;;0.10;0.10;;;;;;;15.96;100.00;100727.00;5116080;28;20028;-51
2023/08/27 08:18:36;;;;;;;0.10;0.10;;;;;;;15.77;100.00;100732.03;5114677;28;20399;-48
2023/08/27 08:21:02;;;;;;;0.10;0.10;;;;;;;15.79;100.00;100732.94;5115721;28;20063;-49
2023/08/27 08:23:27;;;;;;;0.10;0.10;;;;;;;15.96;100.00;100727.00;5115441;28;20020;-47
2023/08/27 08:25:52;;;;;;;0.10;0.10;;;;;;;16.02;100.00;100724.41;5114930;28;20016;-47
2023/08/27 08:28:18;;;;;;;0.10;0.10;;;;;;;16.32;100.00;100725.44;5115396;28;20382;-47
2023/08/27 08:30:46;;;;;;;0.10;0.10;;;;;;;16.26;100.00;100730.59;5115619;28;20043;-51
2023/08/27 08:33:11;;;;;;;;;;;;;;;16.41;100.00;100741.06;5114815;28;20043;-46
2023/08/27 08:35:37;;;;;;;0.10;0.10;;;;;;;16.27;100.00;100745.34;5115651;28;19912;-46
2023/08/27 08:38:03;;;;;;;0.10;0.10;;;;;;;16.15;100.00;100746.13;5115530;28;20059;-48
2023/08/27 08:40:29;;;;;;;0.10;0.10;;;;;;;16.37;100.00;100744.53;5114410;28;20459;-51
2023/08/27 08:43:00;;;;;;;0.10;0.10;;;;;;;16.57;100.00;100739.38;5115307;28;20486;-47
2023/08/27 08:45:37;;;;;;;0.05;0.05;;;;;;;16.98;100.00;100745.59;5114273;28;20485;-50
2023/08/27 08:48:05;;;;;;;;;;;;;;;17.20;100.00;100748.22;5115617;28;20549;-47
2023/08/27 08:50:32;;;;;;;0.10;0.10;;;;;;;17.36;100.00;100744.72;5114974;28;20013;-51
2023/08/27 08:53:00;;;;;;;0.10;0.10;;;;;;;17.52;100.00;100750.81;5114278;28;20094;-47
2023/08/27 08:55:28;;;;;;;0.00;0.00;;;;;;;17.53;100.00;100743.88;5114578;28;20566;-47
2023/08/27 08:58:03;;;;;;;;;;;;;;;17.76;100.00;100743.84;5115599;28;20031;-47
2023/08/27 09:00:29;;;;;;;0.00;0.00;;;;;;;17.82;100.00;100729.91;5113832;28;20282;-46
2023/08/27 09:02:56;;;;;;;0.10;0.10;;;;;;;18.02;100.00;100743.78;5115030;28;20049;-46
2023/08/27 09:05:23;;;;;;;0.10;0.10;;;;;;;17.92;100.00;100732.50;5114625;28;20397;-45
2023/08/27 09:07:49;;;;;;;0.10;0.10;;;;;;;18.17;100.00;100726.38;5114092;27;20516;-48
2023/08/27 09:10:15;;;;;;;0.00;0.00;;;;;;;18.19;100.00;100733.34;5114837;28;20023;-46
2023/08/27 09:12:41;;;;;;;0.00;0.00;;;;;;;18.32;99.42;100726.31;5114870;28;20035;-47
2023/08/27 09:15:09;;;;;;;0.00;0.00;;;;;;;18.19;95.36;100715.06;5114098;28;20073;-48
2023/08/27 09:17:34;;;;;;;;;;;;;;;18.33;99.04;100719.34;5114879;28;20070;-47
2023/08/27 09:19:59;;;;;;;0.00;0.00;;;;;;;17.95;95.66;100718.63;5114847;28;20417;-48
2023/08/27 09:22:25;;;;;;;0.10;0.10;;;;;;;17.95;94.87;100718.63;5113414;28;20273;-51
2023/08/27 09:24:51;;;;;;;0.05;0.05;;;;;;;18.08;92.77;100714.25;5114680;28;20020;-47
2023/08/27 09:27:17;;;;;;;0.00;0.00;;;;;;;18.20;92.00;100710.72;5114305;28;20462;-46
2023/08/27 09:29:43;;;;;;;0.00;0.00;;;;;;;18.24;89.84;100709.81;5113922;27;20089;-50
2023/08/27 09:32:19;;;;;;;0.00;0.00;;;;;;;18.44;91.53;100712.34;5114435;28;20019;-50
2023/08/27 09:34:45;;;;;;;0.10;0.10;;;;;;;18.68;91.17;100700.91;5113478;28;20020;-46
2023/08/27 09:37:12;;;;;;;0.00;0.00;;;;;;;18.84;88.27;100695.59;5113605;28;20067;-46
2023/08/27 09:39:40;;;;;;;0.00;0.00;;;;;;;18.67;83.83;100693.94;5114133;28;20371;-46
2023/08/27 09:42:05;;;;;;;0.00;0.00;;;;;;;18.91;88.00;100694.69;5113607;28;20128;-46
2023/08/27 09:44:31;;;;;;;0.00;0.00;;;;;;;18.84;84.80;100695.59;5113925;28;20028;-46
2023/08/27 09:47:04;;;;;;;0.10;0.10;;;;;;;18.52;86.96;100694.88;5114206;28;20027;-48
2023/08/27 09:49:29;;;;;;;0.00;0.00;;;;;;;18.14;86.84;100689.88;5113216;28;20027;-49
2023/08/27 09:51:57;;;;;;;0.00;0.00;;;;;;;18.36;90.01;100690.63;5114175;28;20340;-46
2023/08/27 09:54:29;;;;;;;0.10;0.10;;;;;;;18.68;86.91;100690.47;5113578;28;20089;-47
2023/08/27 09:56:59;;;;;;;0.10;0.10;;;;;;;19.31;87.87;100683.91;5113150;28;20034;-47
2023/08/27 09:59:26;;;;;;;0.00;0.00;;;;;;;19.64;85.13;100683.56;5113646;28;20032;-47
2023/08/27 10:01:53;;;;;;;0.00;0.00;;;;;;;19.99;78.83;100684.97;5113767;28;20530;-48
2023/08/27 10:04:20;;;;;;;0.00;0.00;;;;;;;20.38;72.87;100687.97;5112663;28;20054;-48
2023/08/27 10:06:45;;;;;;;0.00;0.00;;;;;;;20.61;75.44;100690.25;5113947;28;20277;-50
2023/08/27 10:09:11;;;;;;;0.00;0.00;;;;;;;20.66;71.06;100692.81;5113828;28;20024;-47
2023/08/27 10:11:37;;;;;;;0.00;0.00;;;;;;;20.94;70.65;100687.16;5113198;28;20084;-51
2023/08/27 10:14:04;;;;;;;0.00;0.00;;;;;;;21.33;66.25;100688.25;5113728;28;20110;-49
2023/08/27 10:16:36;;;;;;;0.00;0.00;;;;;;;21.77;63.12;100711.97;5113257;28;20020;-52
2023/08/27 10:19:04;;;;;;;0.00;0.00;;;;;;;22.21;63.75;100706.72;5112772;28;20055;-48
2023/08/27 10:21:30;;;;;;;0.00;0.00;;;;;;;22.20;61.55;100702.38;5113518;28;20019;-50
2023/08/27 10:23:56;;;;;;;0.00;0.00;;;;;;;22.14;58.71;100698.13;5112931;28;20019;-47
2023/08/27 10:26:23;;;;;;;0.00;0.00;;;;;;;22.08;57.30;100690.38;5113187;28;20036;-49
2023/08/27 10:28:51;;;;;;;0.00;0.00;;;;;;;22.48;59.14;100701.81;5113449;28;20027;-48
2023/08/27 10:31:17;;;;;;;0.00;0.00;;;;;;;22.02;61.25;100701.00;5112472;28;20043;-49
2023/08/27 10:33:43;;;;;;;0.00;0.00;;;;;;;21.74;60.81;100692.78;5113522;28;20023;-47
2023/08/27 10:36:17;;;;;;;0.00;0.00;;;;;;;20.96;63.04;100685.41;5113501;28;20523;-50
2023/08/27 10:38:45;;;;;;;0.00;0.00;;;;;;;20.29;68.60;100694.19;5112591;28;20080;-47
2023/08/27 10:41:15;;;;;;;0.00;0.00;;;;;;;19.84;72.07;100696.47;5113292;28;20032;-49
2023/08/27 10:43:40;;;;;;;0.00;0.00;;;;;;;19.58;75.55;100690.59;5113294;28;20028;-49
2023/08/27 10:46:24;;;;;;;0.00;0.00;;;;;;;19.36;77.01;100703.00;5112735;28;20085;-47
2023/08/27 10:48:52;;;;;;;0.00;0.00;;;;;;;19.09;77.09;100701.50;5115853;28;20053;-50
2023/08/27 10:51:18;;;;;;;0.00;0.00;;;;;;;18.92;77.64;100697.28;5117356;28;20019;-47
2023/08/27 10:53:50;;;;;;;0.00;0.00;;;;;;;18.71;77.38;100695.66;5116764;28;20048;-47
2023/08/27 10:56:31;;;;;;;0.00;0.00;;;;;;;18.73;79.59;100701.75;5117032;28;20024;-50
2023/08/27 10:58:58;;;;;;;0.00;0.00;;;;;;;18.71;79.37;100695.66;5117130;28;20055;-49
2023/08/27 11:01:23;;;;;;;0.00;0.00;;;;;;;19.28;77.48;100697.00;5117195;28;20055;-51
2023/08/27 11:03:58;;;;;;;0.00;0.00;;;;;;;20.11;72.48;100695.28;5117278;28;20086;-51
2023/08/27 11:06:36;;;;;;;0.00;0.00;;;;;;;20.68;71.04;100694.53;5116357;28;20030;-47
2023/08/27 11:09:14;;;;;;;0.00;0.00;;;;;;;21.79;64.65;100698.81;5117336;28;20051;-50
2023/08/27 11:11:41;;;;;;;0.00;0.00;;;;;;;22.36;59.46;100689.78;5117408;28;20027;-49
2023/08/27 11:14:11;;;;;;;0.00;0.00;;;;;;;21.75;62.07;100702.41;5116459;28;20028;-47
2023/08/27 11:16:44;;;;;;;0.00;0.00;;;;;;;21.03;62.40;100710.59;5116822;28;20026;-47